Time;durP1;ratioP1;P1;durP2;ratioP2;P2;SDS_P1;SDS_P2;PMS_P1;PMS_P2;Temp;Humidity;BMP_temperature;BMP_pressure;BME280_temperature;BME280_humidity;BME280_pressure;Samples;Min_cycle;Max_cycle;Signal;HPM_P1;HPM_P2
2022/04/17 00:00:02;;;;;;;11.70;6.10;;;3.30;99.90;;;;;;4916770;29;20500;-51
2022/04/17 00:02:33;;;;;;;10.70;6.50;;;3.30;99.90;;;;;;4909956;29;20047;-50
2022/04/17 00:05:01;;;;;;;11.10;6.28;;;3.30;99.90;;;;;;4909268;29;20048;-51
2022/04/17 00:07:28;;;;;;;10.82;6.70;;;3.30;99.90;;;;;;4910073;29;20048;-51
2022/04/17 00:09:56;;;;;;;14.23;7.72;;;3.30;99.90;;;;;;4915564;29;20048;-51
2022/04/17 00:12:23;;;;;;;;;;;3.30;99.90;;;;;;4918271;29;20339;-51
2022/04/17 00:14:50;;;;;;;12.40;6.75;;;3.10;99.90;;;;;;4912243;29;19931;-53
2022/04/17 00:17:18;;;;;;;10.15;6.32;;;3.00;99.90;;;;;;4917593;29;20044;-52
2022/04/17 00:19:45;;;;;;;;;;;2.90;99.90;;;;;;4914786;29;20048;-52
2022/04/17 00:22:13;;;;;;;12.35;6.95;;;3.00;99.90;;;;;;4916579;29;20778;-50
2022/04/17 00:24:40;;;;;;;12.77;6.32;;;3.00;99.90;;;;;;4914937;29;20046;-52
2022/04/17 00:27:08;;;;;;;12.88;5.78;;;3.00;99.90;;;;;;4917660;29;20048;-51
2022/04/17 00:29:35;;;;;;;;;;;3.00;99.90;;;;;;4902160;29;20067;-53
2022/04/17 00:32:02;;;;;;;11.60;5.95;;;3.00;99.90;;;;;;4915042;29;19923;-52
2022/04/17 00:34:30;;;;;;;11.15;6.20;;;2.90;99.90;;;;;;4914388;29;20059;-50
2022/04/17 00:36:59;;;;;;;11.27;6.45;;;2.80;99.90;;;;;;4917978;29;20480;-50
2022/04/17 00:39:26;;;;;;;11.30;6.50;;;2.80;99.90;;;;;;4914394;29;20040;-51
2022/04/17 00:41:54;;;;;;;;;;;2.80;99.90;;;;;;4912718;29;20083;-52
2022/04/17 00:44:20;;;;;;;11.82;6.32;;;2.70;99.90;;;;;;4914481;29;19923;-52
2022/04/17 00:46:47;;;;;;;8.38;5.00;;;2.70;99.90;;;;;;4917738;29;20502;-53
2022/04/17 00:49:14;;;;;;;12.20;6.65;;;2.70;99.90;;;;;;4914097;29;20040;-52
2022/04/17 00:51:43;;;;;;;12.20;6.70;;;2.70;99.90;;;;;;4913023;29;20048;-51
2022/04/17 00:54:12;;;;;;;10.55;6.43;;;2.70;99.90;;;;;;4914574;29;20048;-54
2022/04/17 00:56:39;;;;;;;13.15;7.15;;;2.60;99.90;;;;;;4916834;29;20062;-50
2022/04/17 00:59:09;;;;;;;11.85;6.60;;;2.60;99.90;;;;;;4912034;29;20040;-50
2022/04/17 01:01:37;;;;;;;13.38;6.07;;;2.60;99.90;;;;;;4915343;29;20059;-51
2022/04/17 01:04:05;;;;;;;10.65;6.28;;;2.50;99.90;;;;;;4912329;29;20147;-51
2022/04/17 01:06:33;;;;;;;11.63;6.13;;;2.40;99.90;;;;;;4915388;29;20048;-51
2022/04/17 01:09:01;;;;;;;13.50;6.63;;;2.30;99.90;;;;;;4912183;29;20051;-54
2022/04/17 01:11:28;;;;;;;12.57;6.68;;;2.20;99.90;;;;;;4912862;29;20035;-51
2022/04/17 01:13:55;;;;;;;13.80;6.97;;;2.20;99.90;;;;;;4914469;29;20138;-53
2022/04/17 01:16:25;;;;;;;8.27;4.63;;;2.20;99.90;;;;;;4917051;29;20048;-52
2022/04/17 01:19:10;;;;;;;11.05;6.28;;;2.20;99.90;;;;;;4913872;29;20052;-50
2022/04/17 01:21:41;;;;;;;12.90;6.38;;;2.00;99.90;;;;;;4914466;29;20044;-52
2022/04/17 01:26:59;;;;;;;11.88;6.55;;;2.00;99.90;;;;;;4916787;29;20092;-50
2022/04/17 01:29:39;;;;;;;14.18;6.70;;;2.00;99.90;;;;;;4909562;29;20552;-52
2022/04/17 01:32:08;;;;;;;11.27;6.78;;;2.00;99.90;;;;;;4915999;29;20047;-50
2022/04/17 01:34:36;;;;;;;13.10;6.38;;;2.10;99.90;;;;;;4910306;29;20036;-54
2022/04/17 01:37:04;;;;;;;13.93;7.13;;;2.10;99.90;;;;;;4914491;29;20051;-52
2022/04/17 01:39:32;;;;;;;13.10;6.40;;;2.00;99.90;;;;;;4907020;29;20104;-54
2022/04/17 01:41:59;;;;;;;;;;;2.00;99.90;;;;;;4915050;29;20044;-51
2022/04/17 01:44:28;;;;;;;10.75;5.90;;;2.00;99.90;;;;;;4913216;29;19953;-50
2022/04/17 01:46:56;;;;;;;12.45;7.15;;;2.00;99.90;;;;;;4911635;29;20092;-50
2022/04/17 01:49:24;;;;;;;12.85;6.65;;;1.90;99.90;;;;;;4912357;29;20492;-51
2022/04/17 01:51:52;;;;;;;12.30;6.68;;;1.80;99.90;;;;;;4916468;29;20044;-52
2022/04/17 01:54:20;;;;;;;10.82;6.57;;;1.80;99.90;;;;;;4912751;29;20053;-52
2022/04/17 01:56:47;;;;;;;13.73;6.95;;;1.70;99.90;;;;;;4912222;29;20399;-54
2022/04/17 01:59:18;;;;;;;13.18;7.20;;;1.60;99.90;;;;;;4913668;29;20046;-52
2022/04/17 02:01:45;;;;;;;13.35;7.05;;;1.60;99.90;;;;;;4891544;29;20048;-51
2022/04/17 02:04:12;;;;;;;;;;;1.60;99.90;;;;;;4911597;29;20493;-50
2022/04/17 02:06:40;;;;;;;15.00;6.78;;;1.60;99.90;;;;;;4916320;29;19923;-51
2022/04/17 02:09:08;;;;;;;12.88;6.70;;;1.60;99.90;;;;;;4913539;29;20052;-50
2022/04/17 02:11:36;;;;;;;15.63;7.28;;;1.50;99.90;;;;;;4913820;29;20043;-53
2022/04/17 02:14:03;;;;;;;;;;;1.50;99.90;;;;;;4913879;29;20478;-53
2022/04/17 02:16:30;;;;;;;14.70;7.03;;;1.50;99.90;;;;;;4916048;29;19945;-53
2022/04/17 02:18:58;;;;;;;11.32;6.20;;;1.40;99.90;;;;;;4912230;29;20409;-50
2022/04/17 02:21:25;;;;;;;11.35;6.00;;;1.50;99.90;;;;;;4915556;29;20048;-50
2022/04/17 02:23:52;;;;;;;13.43;6.25;;;1.50;99.90;;;;;;4922439;23;20056;-53
2022/04/17 02:26:19;;;;;;;11.30;5.82;;;1.40;99.90;;;;;;4912019;29;20063;-56
2022/04/17 02:28:46;;;;;;;11.02;5.88;;;1.40;99.90;;;;;;4915709;29;20051;-55
2022/04/17 02:31:15;;;;;;;13.48;6.45;;;1.30;99.90;;;;;;4915667;29;20056;-57
2022/04/17 02:33:42;;;;;;;11.05;6.00;;;1.30;99.90;;;;;;4906008;29;20140;-54
2022/04/17 02:36:09;;;;;;;11.18;6.38;;;1.40;99.90;;;;;;4894626;29;20060;-56
2022/04/17 02:38:36;;;;;;;6.75;3.85;;;1.30;99.90;;;;;;4897038;29;20048;-55
2022/04/17 02:41:02;;;;;;;9.98;6.07;;;1.20;99.90;;;;;;4895383;29;20107;-55
2022/04/17 02:43:29;;;;;;;11.45;6.18;;;1.10;99.90;;;;;;4894249;29;20123;-54
2022/04/17 02:45:56;;;;;;;10.55;6.18;;;1.00;99.90;;;;;;4896050;29;20052;-55
2022/04/17 02:48:23;;;;;;;10.98;6.40;;;1.00;99.90;;;;;;4896335;29;20100;-54
2022/04/17 02:50:50;;;;;;;12.57;6.63;;;1.10;99.90;;;;;;4896036;29;20055;-57
2022/04/17 02:53:17;;;;;;;9.82;6.03;;;1.20;99.90;;;;;;4893011;29;20592;-56
2022/04/17 02:55:45;;;;;;;11.32;6.03;;;1.20;99.90;;;;;;4896079;29;20510;-56
2022/04/17 02:58:11;;;;;;;12.30;5.93;;;1.10;99.90;;;;;;4895203;29;20075;-56
2022/04/17 03:06:11;;;;;;;12.25;6.30;;;1.00;99.90;;;;;;4893814;29;20097;-53
2022/04/17 03:08:40;;;;;;;10.35;5.90;;;1.00;99.90;;;;;;4896642;29;20040;-54
2022/04/17 03:11:07;;;;;;;10.88;6.45;;;1.10;99.90;;;;;;4896201;29;20051;-55
2022/04/17 03:13:34;;;;;;;10.23;6.28;;;1.00;99.90;;;;;;4895314;29;20108;-55
2022/04/17 03:16:01;;;;;;;11.48;6.43;;;1.00;99.90;;;;;;4893178;29;20390;-55
2022/04/17 03:18:28;;;;;;;13.65;6.63;;;1.00;99.90;;;;;;4877862;29;20056;-57
2022/04/17 03:20:55;;;;;;;9.65;4.88;;;1.00;99.90;;;;;;4877620;29;20105;-55
2022/04/17 03:23:22;;;;;;;13.43;6.88;;;1.10;99.90;;;;;;4878069;29;20521;-57
2022/04/17 03:25:48;;;;;;;10.90;5.88;;;1.10;99.90;;;;;;4891425;29;20045;-56
2022/04/17 03:28:15;;;;;;;11.40;6.60;;;1.00;99.90;;;;;;4896442;29;20049;-56
2022/04/17 03:30:42;;;;;;;10.52;6.10;;;0.90;99.90;;;;;;4893542;29;20672;-56
2022/04/17 03:33:09;;;;;;;11.18;6.25;;;0.80;99.90;;;;;;4873360;29;20454;-55
2022/04/17 03:35:36;;;;;;;12.65;6.10;;;0.70;99.90;;;;;;4896462;29;20085;-55
2022/04/17 03:38:03;;;;;;;13.40;6.68;;;0.70;99.90;;;;;;4896358;29;20577;-57
2022/04/17 03:40:30;;;;;;;12.63;6.43;;;0.60;99.90;;;;;;4895760;29;20052;-56
2022/04/17 03:42:57;;;;;;;13.18;8.27;;;0.60;99.90;;;;;;4890056;29;20053;-56
2022/04/17 03:45:24;;;;;;;17.08;7.72;;;0.70;99.90;;;;;;4896112;29;20051;-53
2022/04/17 03:47:51;;;;;;;16.17;8.00;;;0.70;99.90;;;;;;4896306;29;20096;-55
2022/04/17 03:50:18;;;;;;;14.63;7.15;;;0.80;99.90;;;;;;4891869;29;20078;-56
2022/04/17 03:52:48;;;;;;;17.75;8.15;;;0.90;99.90;;;;;;4896075;29;20104;-55
2022/04/17 03:55:15;;;;;;;15.23;7.90;;;0.90;99.90;;;;;;4896176;29;20464;-55
2022/04/17 03:57:42;;;;;;;13.32;7.15;;;0.90;99.90;;;;;;4896227;29;20060;-56
2022/04/17 04:00:12;;;;;;;13.63;7.15;;;0.80;99.90;;;;;;4895001;29;20127;-54
2022/04/17 04:02:40;;;;;;;15.10;7.25;;;0.70;99.90;;;;;;4896189;29;20037;-54
2022/04/17 04:05:08;;;;;;;12.88;6.38;;;0.70;99.90;;;;;;4896109;29;20092;-54
2022/04/17 04:07:36;;;;;;;12.07;6.60;;;0.60;99.90;;;;;;4895548;29;20045;-56
2022/04/17 04:10:04;;;;;;;12.60;6.60;;;0.60;99.90;;;;;;4895600;29;20052;-52
2022/04/17 04:12:31;;;;;;;12.90;6.82;;;0.50;99.90;;;;;;4896059;29;20541;-54
2022/04/17 04:14:57;;;;;;;11.93;5.05;;;0.40;99.90;;;;;;4895052;29;20104;-53
2022/04/17 04:17:24;;;;;;;12.93;7.55;;;0.40;99.90;;;;;;4898377;29;20052;-55
2022/04/17 04:19:51;;;;;;;12.77;5.65;;;0.40;99.90;;;;;;4899105;29;20045;-57
2022/04/17 04:22:18;;;;;;;9.65;5.20;;;0.40;99.90;;;;;;4899570;29;20052;-54
2022/04/17 04:24:45;;;;;;;;;;;0.50;99.90;;;;;;4897840;29;20057;-52
2022/04/17 04:29:57;;;;;;;14.82;8.45;;;0.60;99.90;;;;;;4898995;29;20050;-53
2022/04/17 04:32:23;;;;;;;13.70;6.85;;;0.60;99.90;;;;;;4895910;29;20108;-52
2022/04/17 04:34:50;;;;;;;10.25;5.63;;;0.60;99.90;;;;;;4899122;29;20059;-55
2022/04/17 04:37:17;;;;;;;14.57;7.13;;;0.60;99.90;;;;;;4899335;29;20052;-57
2022/04/17 04:39:44;;;;;;;8.68;5.22;;;0.50;99.90;;;;;;4897002;29;20107;-57
2022/04/17 04:42:11;;;;;;;11.80;5.15;;;0.50;99.90;;;;;;4880430;29;20045;-56
2022/04/17 04:44:37;;;;;;;13.07;6.75;;;0.40;99.90;;;;;;4899123;29;20057;-56
2022/04/17 04:47:04;;;;;;;9.57;4.93;;;0.40;99.90;;;;;;4899153;29;20041;-55
2022/04/17 04:49:31;;;;;;;14.57;6.70;;;0.40;99.90;;;;;;4898310;29;20076;-57
2022/04/17 04:52:02;;;;;;;16.60;7.30;;;0.50;99.90;;;;;;4882457;29;20052;-57
2022/04/17 04:54:30;;;;;;;14.70;7.35;;;0.50;99.90;;;;;;4899037;29;20494;-53
2022/04/17 04:56:57;;;;;;;16.50;7.85;;;0.60;99.90;;;;;;4898985;29;20063;-55
2022/04/17 04:59:24;;;;;;;15.43;8.07;;;0.60;99.90;;;;;;4893459;29;20040;-56
2022/04/17 05:01:51;;;;;;;17.50;8.40;;;0.70;99.90;;;;;;4898818;29;20049;-55
2022/04/17 05:04:20;;;;;;;17.73;8.13;;;0.70;99.90;;;;;;4898955;29;20040;-56
2022/04/17 05:06:47;;;;;;;15.48;8.07;;;0.80;99.90;;;;;;4898363;29;20040;-55
2022/04/17 05:09:13;;;;;;;15.50;7.32;;;0.80;99.90;;;;;;4898541;29;20056;-57
2022/04/17 05:11:40;;;;;;;11.63;6.65;;;0.80;99.90;;;;;;4898250;29;20055;-56
2022/04/17 05:14:09;;;;;;;7.40;4.63;;;0.80;99.90;;;;;;4898522;29;20041;-57
2022/04/17 05:16:36;;;;;;;13.88;7.30;;;0.80;99.90;;;;;;4897690;29;20045;-54
2022/04/17 05:19:20;;;;;;;14.52;8.18;;;0.80;99.90;;;;;;4898568;29;20047;-54
2022/04/17 05:21:48;;;;;;;15.20;7.50;;;0.80;99.90;;;;;;4898533;29;20083;-56
2022/04/17 05:24:15;;;;;;;12.95;7.00;;;0.90;99.90;;;;;;4898322;29;20040;-56
2022/04/17 05:26:43;;;;;;;14.88;7.63;;;0.90;99.90;;;;;;4892155;29;20182;-56
2022/04/17 05:29:10;;;;;;;15.43;7.53;;;1.00;99.90;;;;;;4897879;29;20040;-55
2022/04/17 05:31:37;;;;;;;16.08;8.05;;;1.00;99.90;;;;;;4898058;29;20501;-56
2022/04/17 05:34:04;;;;;;;17.02;8.15;;;1.10;99.90;;;;;;4898408;29;20131;-57
2022/04/17 05:36:30;;;;;;;16.33;8.65;;;1.20;99.90;;;;;;4892343;29;20044;-56
2022/04/17 05:38:57;;;;;;;15.90;8.93;;;1.30;99.90;;;;;;4898131;29;20049;-57
2022/04/17 05:41:26;;;;;;;10.55;5.80;;;1.40;99.90;;;;;;4897571;29;20454;-53
2022/04/17 05:43:56;;;;;;;14.95;8.57;;;1.40;99.90;;;;;;4897692;29;20049;-57
2022/04/17 05:46:24;;;;;;;16.80;8.57;;;1.50;99.90;;;;;;4897149;29;20108;-55
2022/04/17 05:48:51;;;;;;;16.42;8.20;;;1.60;99.90;;;;;;4881521;29;20148;-56
2022/04/17 05:51:17;;;;;;;21.23;8.73;;;1.70;99.90;;;;;;4897727;29;20052;-53
2022/04/17 05:53:44;;;;;;;22.48;11.30;;;1.70;99.90;;;;;;4896568;29;20044;-53
2022/04/17 05:56:11;;;;;;;16.95;8.07;;;1.80;99.90;;;;;;4897403;29;20506;-54
2022/04/17 05:58:38;;;;;;;14.88;7.97;;;1.80;99.90;;;;;;4897830;29;20053;-57
2022/04/17 06:01:04;;;;;;;11.93;6.68;;;1.90;99.90;;;;;;4897390;29;20494;-57
2022/04/17 06:03:31;;;;;;;13.75;7.60;;;1.90;99.90;;;;;;4891930;29;20100;-56
2022/04/17 06:05:58;;;;;;;11.20;5.53;;;1.90;99.90;;;;;;4897266;29;20052;-56
2022/04/17 06:08:25;;;;;;;13.80;7.40;;;2.00;99.90;;;;;;4880809;29;20399;-55
2022/04/17 06:10:51;;;;;;;10.48;5.97;;;2.10;99.90;;;;;;4896538;29;20048;-57
2022/04/17 06:13:18;;;;;;;12.73;7.28;;;2.20;99.90;;;;;;4896274;29;20055;-56
2022/04/17 06:15:45;;;;;;;12.73;7.63;;;2.20;99.90;;;;;;4897185;29;20049;-56
2022/04/17 06:18:12;;;;;;;14.68;7.45;;;2.40;99.90;;;;;;4897462;29;20076;-56
2022/04/17 06:20:39;;;;;;;11.68;5.88;;;2.50;99.90;;;;;;4894671;29;20565;-56
2022/04/17 06:23:06;;;;;;;13.93;8.30;;;2.60;99.90;;;;;;4894492;29;20049;-57
2022/04/17 06:25:33;;;;;;;13.38;7.47;;;2.60;99.90;;;;;;4897469;29;20051;-56
2022/04/17 06:28:00;;;;;;;10.20;5.38;;;2.80;99.90;;;;;;4896860;29;20104;-57
2022/04/17 06:30:27;;;;;;;13.40;6.82;;;2.90;99.90;;;;;;4894482;29;20051;-57
2022/04/17 06:32:54;;;;;;;11.40;6.55;;;3.00;99.90;;;;;;4892930;29;20045;-56
2022/04/17 06:35:21;;;;;;;10.60;6.28;;;3.20;99.90;;;;;;4896938;29;20108;-57
2022/04/17 06:37:55;;;;;;;8.57;4.97;;;3.30;99.90;;;;;;4896685;29;20108;-57
2022/04/17 06:40:27;;;;;;;11.77;6.05;;;3.50;99.90;;;;;;4878926;29;20597;-56
2022/04/17 06:42:57;;;;;;;10.73;5.22;;;3.60;99.90;;;;;;4897053;29;20088;-53
2022/04/17 06:45:27;;;;;;;10.07;5.65;;;3.80;99.90;;;;;;4896949;29;20207;-54
2022/04/17 06:47:55;;;;;;;14.07;6.63;;;3.90;99.90;;;;;;4892591;29;20045;-57
2022/04/17 06:50:22;;;;;;;;;;;4.10;99.90;;;;;;4896908;29;20478;-55
2022/04/17 06:52:50;;;;;;;12.05;5.78;;;4.10;99.90;;;;;;4896996;29;20021;-57
2022/04/17 06:55:17;;;;;;;10.95;5.50;;;4.30;99.90;;;;;;4895952;29;20130;-56
2022/04/17 06:57:49;;;;;;;11.27;6.38;;;4.40;99.90;;;;;;4896360;29;20055;-54
2022/04/17 07:00:17;;;;;;;9.20;5.70;;;4.40;99.90;;;;;;4896401;29;20051;-58
2022/04/17 07:02:45;;;;;;;11.35;6.30;;;4.50;99.90;;;;;;4896773;29;20063;-57
2022/04/17 07:05:13;;;;;;;8.77;5.85;;;4.60;99.90;;;;;;4893169;29;20052;-54
2022/04/17 07:07:39;;;;;;;13.48;5.63;;;4.70;99.90;;;;;;4896229;29;20572;-57
2022/04/17 07:10:07;;;;;;;9.10;6.22;;;4.80;99.90;;;;;;4896280;29;20048;-55
2022/04/17 07:12:34;;;;;;;11.45;5.85;;;4.90;99.90;;;;;;4895051;29;20051;-56
2022/04/17 07:15:06;;;;;;;9.45;5.78;;;5.00;99.90;;;;;;4896299;29;20045;-54
2022/04/17 07:17:37;;;;;;;7.50;5.22;;;5.10;99.90;;;;;;4896257;29;20407;-53
2022/04/17 07:20:05;;;;;;;6.93;4.80;;;5.30;99.90;;;;;;4895715;29;20048;-57
2022/04/17 07:22:37;;;;;;;11.45;5.45;;;5.40;99.90;;;;;;4896524;29;20092;-55
2022/04/17 07:25:05;;;;;;;8.90;5.35;;;5.50;99.90;;;;;;4896473;29;20036;-56
2022/04/17 07:27:40;;;;;;;7.13;4.88;;;5.60;99.90;;;;;;4895855;29;20044;-55
2022/04/17 07:30:18;;;;;;;8.75;5.72;;;5.80;99.90;;;;;;4894865;29;20045;-55
2022/04/17 07:32:48;;;;;;;8.55;4.90;;;5.90;99.90;;;;;;4896527;29;20494;-57
2022/04/17 07:35:17;;;;;;;9.55;4.85;;;6.00;99.90;;;;;;4896377;29;20116;-57
2022/04/17 07:37:54;;;;;;;7.95;4.70;;;6.20;99.90;;;;;;4892207;29;20036;-57
2022/04/17 07:40:26;;;;;;;8.20;5.57;;;6.10;99.90;;;;;;4895783;29;20085;-57
2022/04/17 07:42:56;;;;;;;7.43;5.15;;;6.20;99.90;;;;;;4896400;29;20052;-57
2022/04/17 07:45:23;;;;;;;10.15;5.20;;;6.30;99.90;;;;;;4896315;29;20176;-58
2022/04/17 07:47:51;;;;;;;9.25;4.63;;;6.50;99.90;;;;;;4894148;29;20037;-56
2022/04/17 07:50:21;;;;;;;9.00;4.90;;;6.60;99.90;;;;;;4897058;29;20053;-55
2022/04/17 07:52:47;;;;;;;6.75;4.57;;;6.70;99.90;;;;;;4900120;29;20052;-56
2022/04/17 07:55:16;;;;;;;7.05;4.47;;;6.60;99.90;;;;;;4894973;29;20471;-57
2022/04/17 08:00:42;;;;;;;5.38;3.85;;;6.80;99.90;;;;;;4885492;29;20250;-57
2022/04/17 08:05:56;;;;;;;8.00;3.80;;;6.80;99.90;;;;;;4899844;29;20107;-55
2022/04/17 08:08:22;;;;;;;6.28;4.10;;;7.00;99.90;;;;;;4899275;29;20048;-56
2022/04/17 08:10:49;;;;;;;9.07;4.15;;;7.20;99.90;;;;;;4898981;29;20044;-56
2022/04/17 08:13:16;;;;;;;10.07;3.80;;;7.30;99.90;;;;;;4897983;29;20057;-58
2022/04/17 08:15:43;;;;;;;5.55;3.80;;;7.30;99.90;;;;;;4899730;29;20045;-57
2022/04/17 08:18:10;;;;;;;6.95;4.20;;;7.30;99.90;;;;;;4899712;29;20056;-58
2022/04/17 08:20:37;;;;;;;6.82;4.43;;;7.40;99.90;;;;;;4880950;29;20045;-57
2022/04/17 08:23:04;;;;;;;6.65;4.45;;;7.50;99.90;;;;;;4896547;29;20108;-58
2022/04/17 08:25:32;;;;;;;8.23;4.93;;;7.40;99.90;;;;;;4926224;23;20099;-52
2022/04/17 08:27:59;;;;;;;6.65;4.55;;;7.60;99.90;;;;;;4917566;29;20056;-50
2022/04/17 08:30:29;;;;;;;7.20;4.43;;;7.60;99.90;;;;;;4917996;29;20123;-54
2022/04/17 08:32:57;;;;;;;7.90;4.53;;;7.70;99.90;;;;;;4918323;29;20079;-52
2022/04/17 08:35:24;;;;;;;6.60;4.35;;;7.90;99.90;;;;;;4914441;29;20584;-51
2022/04/17 08:37:52;;;;;;;6.15;4.50;;;7.90;99.90;;;;;;4918128;29;20047;-50
2022/04/17 08:40:19;;;;;;;7.30;4.70;;;7.80;99.90;;;;;;4917779;29;20417;-51
2022/04/17 08:42:48;;;;;;;6.45;4.22;;;7.80;99.90;;;;;;4917782;29;20048;-52
2022/04/17 08:45:15;;;;;;;6.97;4.53;;;7.90;99.90;;;;;;4917459;29;20048;-52
2022/04/17 08:47:43;;;;;;;9.38;4.45;;;8.00;99.90;;;;;;4918048;29;20092;-55
2022/04/17 08:50:15;;;;;;;7.07;4.35;;;8.10;99.90;;;;;;4917642;29;20103;-52
2022/04/17 08:52:46;;;;;;;5.95;3.97;;;8.20;99.90;;;;;;4914135;29;20055;-50
2022/04/17 08:55:13;;;;;;;5.80;3.97;;;8.30;99.90;;;;;;4917739;29;20497;-50
2022/04/17 08:57:40;;;;;;;8.20;3.55;;;8.30;99.90;;;;;;4917985;29;20044;-51
2022/04/17 09:00:10;;;;;;;7.25;4.00;;;8.40;99.90;;;;;;4917386;29;20044;-54
2022/04/17 09:02:40;;;;;;;6.55;3.78;;;8.40;99.90;;;;;;4913367;29;20055;-51
2022/04/17 09:05:08;;;;;;;;;;;8.40;99.90;;;;;;4918019;29;20047;-51
2022/04/17 09:07:40;;;;;;;4.68;3.05;;;8.50;99.90;;;;;;4917524;29;19930;-51
2022/04/17 09:10:08;;;;;;;4.68;3.47;;;8.60;99.90;;;;;;4917342;29;20122;-50
2022/04/17 09:12:35;;;;;;;5.13;3.72;;;8.80;99.90;;;;;;4913279;29;20494;-51
2022/04/17 09:15:02;;;;;;;4.97;3.17;;;8.90;99.90;;;;;;4917461;29;20053;-50
2022/04/17 09:17:36;;;;;;;6.07;3.58;;;9.00;99.90;;;;;;4917517;29;20044;-54
2022/04/17 09:20:04;;;;;;;4.88;3.03;;;9.20;99.90;;;;;;4914972;29;20044;-51
2022/04/17 09:22:48;;;;;;;5.30;2.67;;;9.30;99.90;;;;;;4917181;29;20075;-53
2022/04/17 09:25:15;;;;;;;4.82;2.95;;;9.50;99.90;;;;;;4917229;29;20493;-51
2022/04/17 09:27:54;;;;;;;4.05;3.30;;;9.60;99.80;;;;;;4915637;29;20059;-50
2022/04/17 09:30:24;;;;;;;4.32;2.90;;;9.60;99.90;;;;;;4916117;29;20048;-52
2022/04/17 09:32:52;;;;;;;4.63;3.08;;;9.50;98.30;;;;;;4917395;29;20457;-53
2022/04/17 09:35:26;;;;;;;8.27;3.28;;;9.50;99.10;;;;;;4917173;29;20040;-53
2022/04/17 09:37:59;;;;;;;5.22;3.33;;;9.50;99.90;;;;;;4915456;29;20044;-51
2022/04/17 09:40:28;;;;;;;6.03;3.25;;;9.60;99.90;;;;;;4916603;29;20501;-51
2022/04/17 09:43:11;;;;;;;4.60;3.30;;;9.80;98.20;;;;;;4916907;29;20123;-52
2022/04/17 09:46:01;;;;;;;4.03;2.85;;;9.80;98.10;;;;;;4917096;29;20044;-54
2022/04/17 09:48:36;;;;;;;5.10;3.00;;;9.80;97.70;;;;;;4908788;29;20552;-51
2022/04/17 09:51:26;;;;;;;3.83;3.17;;;9.90;99.80;;;;;;4916417;29;20048;-51
2022/04/17 09:53:57;;;;;;;3.65;3.20;;;9.90;98.90;;;;;;4916864;29;20052;-53
2022/04/17 09:56:46;;;;;;;4.82;3.30;;;9.90;97.50;;;;;;4910868;29;20044;-50
2022/04/17 09:59:18;;;;;;;5.38;3.35;;;9.90;99.90;;;;;;4916825;29;20505;-53
2022/04/17 10:01:46;;;;;;;5.65;3.25;;;10.00;98.00;;;;;;4916502;29;20095;-50
2022/04/17 10:04:17;;;;;;;6.13;2.92;;;10.10;96.90;;;;;;4916543;29;20048;-50
2022/04/17 10:06:45;;;;;;;5.30;3.38;;;10.00;98.20;;;;;;4912200;29;20051;-51
2022/04/17 10:09:13;;;;;;;6.07;3.65;;;10.00;98.60;;;;;;4899619;29;20047;-52
2022/04/17 10:11:41;;;;;;;6.10;3.10;;;10.10;97.10;;;;;;4908224;29;20099;-51
2022/04/17 10:14:08;;;;;;;4.70;3.17;;;10.00;96.50;;;;;;4915218;29;20445;-54
2022/04/17 10:16:38;;;;;;;;;;;10.00;97.20;;;;;;4916880;29;20040;-50
2022/04/17 10:19:13;;;;;;;3.92;3.03;;;10.70;99.90;;;;;;4913820;29;19931;-51
2022/04/17 10:21:41;;;;;;;4.65;3.33;;;10.30;96.60;;;;;;4915762;29;20490;-53
2022/04/17 10:24:15;;;;;;;4.70;3.50;;;10.40;97.40;;;;;;4916136;29;20167;-51
2022/04/17 10:26:47;;;;;;;4.50;2.97;;;10.40;96.60;;;;;;4916158;29;20048;-51
2022/04/17 10:29:32;;;;;;;4.40;3.22;;;10.40;97.10;;;;;;4907967;29;20126;-52
2022/04/17 10:32:08;;;;;;;3.80;3.28;;;10.40;96.40;;;;;;4915574;29;20506;-53
2022/04/17 10:35:01;;;;;;;6.30;4.22;;;10.40;98.00;;;;;;4915985;29;20048;-54
2022/04/17 10:37:54;;;;;;;4.70;3.63;;;10.50;95.90;;;;;;4896712;29;20501;-52
2022/04/17 10:40:22;;;;;;;5.15;3.40;;;10.40;97.70;;;;;;4915773;29;20059;-51
2022/04/17 10:43:02;;;;;;;6.57;3.78;;;10.40;95.20;;;;;;4916055;29;20095;-51
2022/04/17 10:45:31;;;;;;;7.15;3.72;;;10.40;96.10;;;;;;4911534;29;20048;-53
2022/04/17 10:48:04;;;;;;;6.20;3.63;;;10.50;96.60;;;;;;4915742;29;20420;-52
2022/04/17 10:50:40;;;;;;;6.55;3.47;;;10.50;95.40;;;;;;4915418;29;20091;-50
2022/04/17 10:53:27;;;;;;;6.25;3.20;;;10.50;97.40;;;;;;4908191;29;20045;-52
2022/04/17 10:56:10;;;;;;;6.22;3.42;;;10.60;94.50;;;;;;4915590;29;20051;-51
2022/04/17 10:58:41;;;;;;;5.03;3.33;;;10.70;95.50;;;;;;4915741;29;20044;-51
2022/04/17 11:01:14;;;;;;;4.78;3.83;;;10.70;95.00;;;;;;4915404;29;20170;-51
2022/04/17 11:03:52;;;;;;;4.68;3.20;;;10.90;96.90;;;;;;4910978;29;20040;-52
2022/04/17 11:06:30;;;;;;;5.72;3.60;;;11.00;95.00;;;;;;4915139;29;20043;-51
2022/04/17 11:09:24;;;;;;;3.97;2.95;;;11.10;95.20;;;;;;4914706;29;20096;-53
2022/04/17 11:11:52;;;;;;;3.90;2.85;;;11.30;94.20;;;;;;4908158;29;20143;-53
2022/04/17 11:14:21;;;;;;;;;;;11.40;93.90;;;;;;4915480;29;20055;-53
2022/04/17 11:17:08;;;;;;;4.88;2.95;;;11.60;92.70;;;;;;4915407;29;19923;-50
2022/04/17 11:19:36;;;;;;;4.15;2.85;;;11.70;91.70;;;;;;4914955;29;20545;-52
2022/04/17 11:22:05;;;;;;;7.72;3.47;;;11.80;92.30;;;;;;4906514;29;20056;-55
2022/04/17 11:25:06;;;;;;;3.72;3.30;;;11.90;93.10;;;;;;4914402;29;20442;-52
2022/04/17 11:27:42;;;;;;;4.53;3.15;;;11.90;94.90;;;;;;4912480;29;20048;-51
2022/04/17 11:30:34;;;;;;;3.85;3.05;;;12.00;93.70;;;;;;4912418;29;20074;-53
2022/04/17 11:33:02;;;;;;;5.65;2.83;;;12.00;92.50;;;;;;4914766;29;20040;-52
2022/04/17 11:35:30;;;;;;;8.35;4.07;;;11.80;92.10;;;;;;4914680;29;20060;-51
2022/04/17 11:38:07;;;;;;;4.72;2.78;;;11.80;92.90;;;;;;4914226;29;20150;-54
2022/04/17 11:40:38;;;;;;;4.82;3.10;;;11.90;92.20;;;;;;4913548;29;20036;-53
2022/04/17 11:43:07;;;;;;;4.53;2.95;;;12.20;91.80;;;;;;4913315;29;20501;-49
2022/04/17 11:45:34;;;;;;;4.50;3.00;;;12.20;92.90;;;;;;4912305;29;20449;-51
2022/04/17 11:48:06;;;;;;;4.93;3.13;;;12.10;91.60;;;;;;4912222;29;20052;-48
2022/04/17 11:50:33;;;;;;;3.35;2.90;;;12.10;92.00;;;;;;4913776;29;20044;-51
2022/04/17 11:53:05;;;;;;;4.85;3.17;;;11.90;91.90;;;;;;4913134;29;20048;-54
2022/04/17 11:55:37;;;;;;;4.55;3.10;;;11.80;91.80;;;;;;4911984;29;20052;-54
2022/04/17 11:58:09;;;;;;;4.22;2.92;;;11.90;93.00;;;;;;4914292;29;20453;-55
2022/04/17 12:00:40;;;;;;;4.03;2.63;;;12.00;91.60;;;;;;4914177;29;20080;-52
2022/04/17 12:03:07;;;;;;;4.05;2.85;;;12.00;89.80;;;;;;4914419;29;20047;-52
2022/04/17 12:05:39;;;;;;;4.07;3.10;;;11.90;93.50;;;;;;4910470;29;20450;-51
2022/04/17 12:08:09;;;;;;;7.20;3.40;;;12.00;91.50;;;;;;4912416;29;20040;-53
2022/04/17 12:10:38;;;;;;;5.65;3.40;;;12.10;93.00;;;;;;4933530;29;20080;-52
2022/04/17 12:13:12;;;;;;;3.97;2.85;;;12.20;92.10;;;;;;4933898;29;20043;-51
2022/04/17 12:15:39;;;;;;;5.30;3.10;;;12.30;91.30;;;;;;4913384;29;20087;-51
2022/04/17 12:18:06;;;;;;;3.80;2.60;;;12.20;93.00;;;;;;4914588;29;20048;-53
2022/04/17 12:20:33;;;;;;;4.00;2.45;;;12.20;91.30;;;;;;4914510;29;20446;-48
2022/04/17 12:23:00;;;;;;;5.45;2.85;;;12.10;91.70;;;;;;4913422;29;20071;-52
2022/04/17 12:25:27;;;;;;;4.53;2.63;;;12.30;89.00;;;;;;4906806;29;20052;-56
2022/04/17 12:27:55;;;;;;;2.80;2.42;;;12.20;86.80;;;;;;4914526;29;20074;-52
2022/04/17 12:30:24;;;;;;;3.40;2.40;;;12.20;90.60;;;;;;4914417;29;20048;-52
2022/04/17 12:32:55;;;;;;;3.65;2.47;;;12.30;91.40;;;;;;4910139;29;20382;-52
2022/04/17 12:35:30;;;;;;;4.50;2.80;;;12.30;90.60;;;;;;4914707;29;20510;-52
2022/04/17 12:38:07;;;;;;;3.95;2.55;;;12.50;90.10;;;;;;4899310;29;20767;-54
2022/04/17 12:40:42;;;;;;;3.55;2.53;;;12.60;88.30;;;;;;4917148;29;20040;-51
2022/04/17 12:43:14;;;;;;;4.18;2.35;;;12.80;86.60;;;;;;4916689;29;20668;-52
2022/04/17 12:46:04;;;;;;;4.50;2.15;;;12.60;89.80;;;;;;4917035;29;20040;-53
2022/04/17 12:48:34;;;;;;;3.20;2.40;;;12.70;88.00;;;;;;4914748;29;20040;-53
2022/04/17 12:51:02;;;;;;;5.03;2.28;;;12.70;87.50;;;;;;4916358;29;20100;-52
2022/04/17 12:53:38;;;;;;;2.88;2.10;;;12.40;86.70;;;;;;4917140;29;20040;-51
2022/04/17 12:56:06;;;;;;;3.30;1.90;;;12.50;90.70;;;;;;4914149;29;20055;-52
2022/04/17 12:58:53;;;;;;;4.28;2.58;;;12.60;90.60;;;;;;4916899;29;20047;-51
2022/04/17 13:01:25;;;;;;;3.78;2.25;;;12.70;87.00;;;;;;4916487;29;20064;-52
2022/04/17 13:04:16;;;;;;;3.47;2.08;;;12.50;84.60;;;;;;4898485;29;20080;-55
2022/04/17 13:06:43;;;;;;;2.65;1.88;;;12.40;86.10;;;;;;4916057;29;20103;-53
2022/04/17 13:09:22;;;;;;;2.42;1.80;;;12.50;85.70;;;;;;4915118;29;20107;-52
2022/04/17 13:11:53;;;;;;;3.17;2.08;;;12.50;83.80;;;;;;4897230;29;20084;-53
2022/04/17 13:14:21;;;;;;;3.60;2.10;;;12.60;85.40;;;;;;4916292;29;20051;-54
2022/04/17 13:16:56;;;;;;;5.35;2.40;;;12.50;87.70;;;;;;4916307;29;20486;-50
2022/04/17 13:19:26;;;;;;;2.63;2.20;;;12.40;85.80;;;;;;4915995;29;20405;-56
2022/04/17 13:21:54;;;;;;;2.88;1.60;;;12.50;87.50;;;;;;4905852;29;20052;-54